Time;durP1;ratioP1;P1;durP2;ratioP2;P2;SDS_P1;SDS_P2;PMS_P1;PMS_P2;Temp;Humidity;BMP_temperature;BMP_pressure;BME280_temperature;BME280_humidity;BME280_pressure;Samples;Min_cycle;Max_cycle;Signal;HPM_P1;HPM_P2
2022/01/06 00:00:30;;;;;;;13.60;2.35;;;;;;;;;;5123567;27;20424;-63
2022/01/06 00:02:57;;;;;;;12.02;1.98;;;;;;;;;;5127696;27;20031;-62
2022/01/06 00:05:23;;;;;;;10.40;2.20;;;;;;;;;;5109816;27;20039;-63
2022/01/06 00:07:49;;;;;;;10.95;2.17;;;;;;;;;;5128010;27;20511;-63
2022/01/06 00:10:15;;;;;;;14.85;2.20;;;;;;;;;;5108202;27;20364;-63
2022/01/06 00:12:52;;;;;;;13.88;2.55;;;;;;;;;;5128029;27;20077;-63
2022/01/06 00:15:26;;;;;;;17.00;2.42;;;;;;;;;;5106939;27;20070;-62
2022/01/06 00:25:44;;;;;;;17.58;2.63;;;;;;;;;;5124562;27;20134;-63
2022/01/06 00:28:10;;;;;;;16.48;2.40;;;;;;;;;;5106146;27;20051;-63
2022/01/06 00:30:36;;;;;;;20.58;3.10;;;;;;;;;;5125874;27;20114;-62
2022/01/06 00:33:02;;;;;;;16.35;2.78;;;;;;;;;;5126385;27;20084;-63
2022/01/06 00:35:28;;;;;;;17.85;2.70;;;;;;;;;;5123478;27;20035;-63
2022/01/06 00:37:54;;;;;;;15.63;2.58;;;;;;;;;;5126494;27;20035;-63
2022/01/06 00:40:20;;;;;;;22.42;2.55;;;;;;;;;;5126186;27;20429;-63
2022/01/06 00:42:46;;;;;;;18.08;3.40;;;;;;;;;;5124885;27;20054;-63
2022/01/06 00:45:12;;;;;;;21.75;3.30;;;;;;;;;;5123766;27;20066;-62
2022/01/06 00:47:39;;;;;;;23.67;3.03;;;;;;;;;;5126224;27;20036;-62
2022/01/06 00:50:06;;;;;;;15.90;2.70;;;;;;;;;;5127737;27;20490;-63
2022/01/06 00:52:33;;;;;;;11.90;2.40;;;;;;;;;;5106617;27;20042;-63
2022/01/06 00:54:59;;;;;;;25.77;3.45;;;;;;;;;;5125159;27;20054;-63
2022/01/06 00:57:25;;;;;;;20.88;3.03;;;;;;;;;;5107148;27;20114;-62
2022/01/06 00:59:51;;;;;;;14.07;2.50;;;;;;;;;;5101780;27;20050;-62
2022/01/06 01:02:17;;;;;;;18.58;2.95;;;;;;;;;;5119561;27;20059;-62
2022/01/06 01:04:43;;;;;;;12.88;2.28;;;;;;;;;;5108351;27;20046;-63
2022/01/06 01:07:09;;;;;;;19.45;2.72;;;;;;;;;;5105578;27;20336;-62
2022/01/06 01:09:35;;;;;;;18.20;2.92;;;;;;;;;;5103751;27;20050;-63
2022/01/06 01:12:03;;;;;;;14.88;2.60;;;;;;;;;;5106407;27;20046;-63
2022/01/06 01:14:32;;;;;;;17.23;2.72;;;;;;;;;;5125263;27;20047;-62
2022/01/06 01:17:01;;;;;;;15.93;2.90;;;;;;;;;;5102583;27;20470;-62
2022/01/06 01:19:28;;;;;;;21.65;2.53;;;;;;;;;;5122999;27;20122;-62
2022/01/06 01:21:55;;;;;;;17.00;2.38;;;;;;;;;;5125348;27;20131;-63
2022/01/06 01:24:21;;;;;;;14.68;2.30;;;;;;;;;;5125537;27;20059;-63
2022/01/06 01:26:47;;;;;;;13.77;2.58;;;;;;;;;;5125993;27;20100;-62
2022/01/06 01:29:17;;;;;;;19.25;2.20;;;;;;;;;;5122821;27;20105;-63
2022/01/06 01:31:47;;;;;;;14.48;2.83;;;;;;;;;;5121001;27;20066;-63
2022/01/06 01:34:15;;;;;;;14.38;2.90;;;;;;;;;;5103261;28;20086;-62
2022/01/06 01:36:43;;;;;;;18.50;3.10;;;;;;;;;;5124900;27;20043;-62
2022/01/06 01:39:10;;;;;;;20.35;2.45;;;;;;;;;;5122774;28;20447;-62
2022/01/06 01:41:36;;;;;;;13.10;2.78;;;;;;;;;;5124309;28;20038;-62
2022/01/06 01:44:05;;;;;;;17.70;3.05;;;;;;;;;;5122080;28;20471;-63
2022/01/06 01:46:41;;;;;;;11.20;2.60;;;;;;;;;;5122675;28;20096;-62
2022/01/06 01:49:32;;;;;;;;;;;;;;;;;;5102978;28;20142;-62
2022/01/06 01:51:53;;;;;;;15.32;2.83;;;;;;;;;;5121105;28;19933;-62
2022/01/06 01:54:19;;;;;;;15.43;3.28;;;;;;;;;;5104854;28;20068;-62
2022/01/06 01:56:46;;;;;;;13.65;2.67;;;;;;;;;;5101221;28;20081;-62
2022/01/06 01:59:13;;;;;;;15.63;2.75;;;;;;;;;;5123429;28;20036;-62
2022/01/06 02:01:42;;;;;;;9.35;2.50;;;;;;;;;;5115652;28;20134;-62
2022/01/06 02:04:08;;;;;;;14.10;2.45;;;;;;;;;;5088306;28;20414;-62
2022/01/06 02:06:34;;;;;;;16.92;2.90;;;;;;;;;;5107843;27;20034;-62
2022/01/06 02:09:00;;;;;;;18.65;2.22;;;;;;;;;;5107428;27;20039;-63
2022/01/06 02:11:26;;;;;;;18.13;3.25;;;;;;;;;;5126709;27;20043;-62
2022/01/06 02:13:54;;;;;;;15.80;2.85;;;;;;;;;;5127933;27;20458;-62
2022/01/06 02:16:21;;;;;;;16.88;2.70;;;;;;;;;;5124609;27;20531;-62
2022/01/06 02:18:47;;;;;;;16.00;2.95;;;;;;;;;;5128706;27;20035;-62
2022/01/06 02:21:14;;;;;;;16.88;2.70;;;;;;;;;;5105526;27;20079;-62
2022/01/06 02:23:40;;;;;;;11.18;2.38;;;;;;;;;;5120199;27;20042;-63
2022/01/06 02:26:06;;;;;;;17.45;2.60;;;;;;;;;;5121281;27;20126;-62
2022/01/06 02:28:32;;;;;;;16.60;2.40;;;;;;;;;;5106346;27;20467;-62
2022/01/06 02:30:58;;;;;;;12.32;2.38;;;;;;;;;;5104846;27;20502;-62
2022/01/06 02:33:25;;;;;;;13.85;2.28;;;;;;;;;;5103605;27;20055;-62
2022/01/06 02:35:51;;;;;;;18.42;2.65;;;;;;;;;;5125902;27;20095;-62
2022/01/06 02:38:18;;;;;;;13.50;2.10;;;;;;;;;;5119562;27;20057;-62
2022/01/06 02:40:45;;;;;;;18.15;2.72;;;;;;;;;;5127763;27;20456;-62
2022/01/06 02:43:14;;;;;;;15.18;2.38;;;;;;;;;;5125672;27;20043;-62
2022/01/06 02:45:40;;;;;;;13.80;2.08;;;;;;;;;;5101257;27;21298;-62
2022/01/06 02:48:09;;;;;;;21.52;3.03;;;;;;;;;;5126376;27;20526;-62
2022/01/06 02:50:40;;;;;;;16.63;2.67;;;;;;;;;;5089885;27;20053;-62
2022/01/06 02:53:06;;;;;;;20.40;3.15;;;;;;;;;;5126762;27;20043;-62
2022/01/06 02:55:33;;;;;;;15.48;2.53;;;;;;;;;;5124079;27;20079;-62
2022/01/06 02:57:59;;;;;;;13.40;2.33;;;;;;;;;;5101230;27;20038;-62
2022/01/06 03:00:26;;;;;;;14.70;2.72;;;;;;;;;;5122613;27;20051;-62
2022/01/06 03:02:52;;;;;;;14.20;2.22;;;;;;;;;;5123684;27;20115;-62
2022/01/06 03:05:18;;;;;;;11.80;2.65;;;;;;;;;;5124483;27;20054;-62
2022/01/06 03:07:44;;;;;;;10.85;2.45;;;;;;;;;;5102581;27;20039;-62
2022/01/06 03:10:13;;;;;;;18.02;2.22;;;;;;;;;;5122191;27;20046;-62
2022/01/06 03:12:39;;;;;;;12.23;2.35;;;;;;;;;;5125305;27;20145;-62
2022/01/06 03:15:24;;;;;;;13.10;2.03;;;;;;;;;;5103095;27;20537;-62
2022/01/06 03:17:51;;;;;;;16.92;2.42;;;;;;;;;;5123539;27;20077;-62
2022/01/06 03:20:18;;;;;;;22.63;2.90;;;;;;;;;;5106409;27;20050;-62
2022/01/06 03:22:44;;;;;;;12.20;2.50;;;;;;;;;;5107014;27;20035;-62
2022/01/06 03:25:11;;;;;;;14.07;2.50;;;;;;;;;;5103778;27;20047;-62
2022/01/06 03:27:38;;;;;;;17.73;2.40;;;;;;;;;;5120981;27;20040;-62
2022/01/06 03:30:05;;;;;;;20.95;2.85;;;;;;;;;;5123624;27;20035;-62
2022/01/06 03:32:31;;;;;;;20.10;3.05;;;;;;;;;;5126368;27;20522;-62
2022/01/06 03:34:57;;;;;;;14.30;2.90;;;;;;;;;;5126369;27;20050;-62
2022/01/06 03:37:23;;;;;;;19.83;2.58;;;;;;;;;;5108656;27;20058;-62
2022/01/06 03:39:49;;;;;;;18.33;2.63;;;;;;;;;;5110104;27;20050;-62
2022/01/06 03:42:15;;;;;;;18.20;2.60;;;;;;;;;;5108378;27;20134;-62
2022/01/06 03:44:41;;;;;;;17.08;2.20;;;;;;;;;;5126885;27;20084;-62
2022/01/06 03:47:08;;;;;;;18.67;2.63;;;;;;;;;;5126749;27;20039;-62
2022/01/06 03:49:34;;;;;;;19.63;3.15;;;;;;;;;;5115053;27;20035;-63
2022/01/06 03:52:04;;;;;;;17.70;2.72;;;;;;;;;;5118983;27;20040;-68
2022/01/06 03:54:30;;;;;;;16.30;2.53;;;;;;;;;;5108087;27;20046;-68
2022/01/06 03:56:57;;;;;;;22.17;2.85;;;;;;;;;;5126719;27;20052;-69
2022/01/06 03:59:23;;;;;;;15.32;2.25;;;;;;;;;;5090901;27;20091;-68
2022/01/06 04:01:49;;;;;;;19.35;2.72;;;;;;;;;;5124044;27;20035;-68
2022/01/06 04:04:15;;;;;;;18.67;2.72;;;;;;;;;;5124358;27;20103;-68
2022/01/06 04:06:42;;;;;;;16.17;2.17;;;;;;;;;;5107887;27;20058;-67
2022/01/06 04:09:08;;;;;;;23.25;3.38;;;;;;;;;;5120507;27;20130;-68
2022/01/06 04:11:35;;;;;;;16.77;2.33;;;;;;;;;;5124258;27;20463;-68
2022/01/06 04:14:01;;;;;;;17.73;2.95;;;;;;;;;;5126154;27;20051;-68
2022/01/06 04:16:29;;;;;;;23.35;3.35;;;;;;;;;;5123782;27;20035;-68
2022/01/06 04:18:55;;;;;;;21.60;2.88;;;;;;;;;;5106769;27;20047;-68
2022/01/06 04:21:21;;;;;;;17.38;3.40;;;;;;;;;;5123674;27;20088;-68
2022/01/06 04:23:47;;;;;;;25.85;3.42;;;;;;;;;;5105503;27;20142;-68
2022/01/06 04:26:14;;;;;;;25.30;3.47;;;;;;;;;;5124042;27;20046;-68
2022/01/06 04:28:40;;;;;;;20.90;3.30;;;;;;;;;;5103945;27;20035;-69
2022/01/06 04:31:07;;;;;;;21.02;3.38;;;;;;;;;;5106862;27;20055;-68
2022/01/06 04:33:33;;;;;;;23.67;2.85;;;;;;;;;;5122668;27;20039;-68
2022/01/06 04:36:00;;;;;;;21.67;2.92;;;;;;;;;;5125677;27;20044;-68
2022/01/06 04:38:27;;;;;;;21.35;3.15;;;;;;;;;;5106256;27;20038;-68
2022/01/06 04:40:53;;;;;;;15.38;3.45;;;;;;;;;;5122704;27;20054;-68
2022/01/06 04:43:19;;;;;;;14.50;2.40;;;;;;;;;;5124888;27;20395;-68
2022/01/06 04:45:45;;;;;;;19.35;3.20;;;;;;;;;;5123547;27;20555;-68
2022/01/06 04:48:12;;;;;;;17.70;3.00;;;;;;;;;;5121755;27;20126;-68
2022/01/06 04:50:38;;;;;;;18.85;3.03;;;;;;;;;;5104859;27;20479;-68
2022/01/06 04:53:04;;;;;;;20.80;2.88;;;;;;;;;;5106132;27;20038;-68
2022/01/06 04:55:30;;;;;;;15.13;2.35;;;;;;;;;;5123375;27;20467;-68
2022/01/06 04:57:57;;;;;;;18.20;2.45;;;;;;;;;;5103831;27;20042;-68
2022/01/06 05:00:23;;;;;;;16.45;3.22;;;;;;;;;;5123269;27;20138;-68
2022/01/06 05:02:49;;;;;;;19.08;2.90;;;;;;;;;;5123120;27;20067;-68
2022/01/06 05:05:15;;;;;;;20.30;2.78;;;;;;;;;;5121309;27;20053;-68
2022/01/06 05:07:42;;;;;;;13.90;2.63;;;;;;;;;;5101848;27;20054;-68
2022/01/06 05:10:09;;;;;;;18.95;2.92;;;;;;;;;;5123223;27;20130;-68
2022/01/06 05:12:42;;;;;;;14.45;2.90;;;;;;;;;;5102282;27;20050;-68
2022/01/06 05:15:08;;;;;;;19.23;3.00;;;;;;;;;;5101233;27;20070;-68
2022/01/06 05:17:35;;;;;;;19.95;2.92;;;;;;;;;;5116605;27;20555;-68
2022/01/06 05:20:01;;;;;;;16.70;2.88;;;;;;;;;;5119709;27;20043;-68
2022/01/06 05:22:28;;;;;;;22.38;2.90;;;;;;;;;;5128246;27;20041;-69
2022/01/06 05:24:54;;;;;;;15.73;2.78;;;;;;;;;;5123363;27;20050;-68
2022/01/06 05:27:21;;;;;;;19.98;3.13;;;;;;;;;;5121323;27;20039;-68
2022/01/06 05:29:47;;;;;;;19.65;3.13;;;;;;;;;;5106438;28;20091;-68
2022/01/06 05:32:13;;;;;;;19.33;2.72;;;;;;;;;;5126239;27;20368;-68
2022/01/06 05:34:39;;;;;;;22.58;2.92;;;;;;;;;;5125769;27;20122;-68
2022/01/06 05:37:05;;;;;;;12.27;2.58;;;;;;;;;;5107490;28;20095;-68
2022/01/06 05:39:31;;;;;;;15.27;2.85;;;;;;;;;;5108702;27;20047;-68
2022/01/06 05:41:57;;;;;;;17.88;3.28;;;;;;;;;;5133014;27;20031;-68
2022/01/06 05:44:24;;;;;;;17.05;2.47;;;;;;;;;;5115661;27;20043;-67
2022/01/06 05:46:51;;;;;;;20.67;3.35;;;;;;;;;;5109852;27;20062;-68
2022/01/06 05:49:17;;;;;;;16.08;2.83;;;;;;;;;;5129092;27;20490;-68
2022/01/06 05:51:43;;;;;;;16.30;2.38;;;;;;;;;;5127818;27;20495;-68
2022/01/06 05:54:09;;;;;;;19.92;3.22;;;;;;;;;;5129488;27;20095;-68
2022/01/06 05:56:35;;;;;;;16.52;4.15;;;;;;;;;;5127933;27;20035;-68
2022/01/06 05:59:01;;;;;;;18.63;3.97;;;;;;;;;;5130169;27;20081;-68
2022/01/06 06:01:27;;;;;;;26.88;4.47;;;;;;;;;;5131050;27;20100;-68
2022/01/06 06:03:55;;;;;;;22.20;3.80;;;;;;;;;;5112194;27;20139;-68
2022/01/06 06:06:21;;;;;;;19.02;3.60;;;;;;;;;;5113328;27;20043;-68
2022/01/06 06:08:47;;;;;;;19.23;3.60;;;;;;;;;;5128756;27;20122;-68
2022/01/06 06:11:13;;;;;;;16.63;3.00;;;;;;;;;;5110612;27;20051;-68
2022/01/06 06:13:39;;;;;;;15.48;2.85;;;;;;;;;;5111432;27;20035;-68
2022/01/06 06:16:05;;;;;;;19.77;3.60;;;;;;;;;;5129051;27;20379;-68
2022/01/06 06:18:31;;;;;;;21.17;3.80;;;;;;;;;;5132077;27;20072;-68
2022/01/06 06:20:58;;;;;;;20.23;4.00;;;;;;;;;;5114297;27;20043;-68
2022/01/06 06:23:24;;;;;;;24.38;4.50;;;;;;;;;;5131637;27;20103;-68
2022/01/06 06:25:50;;;;;;;20.20;4.15;;;;;;;;;;5112209;27;20050;-68
2022/01/06 06:28:16;;;;;;;14.82;3.63;;;;;;;;;;5132433;27;20035;-68
2022/01/06 06:30:42;;;;;;;21.20;4.32;;;;;;;;;;5132503;27;20077;-67
2022/01/06 06:33:08;;;;;;;19.30;4.32;;;;;;;;;;5134128;27;20122;-68
2022/01/06 06:35:34;;;;;;;22.77;4.97;;;;;;;;;;5133021;27;20046;-68
2022/01/06 06:38:00;;;;;;;13.05;3.72;;;;;;;;;;5134357;27;20039;-68
2022/01/06 06:40:26;;;;;;;18.83;3.53;;;;;;;;;;5128667;27;20089;-68
2022/01/06 06:42:52;;;;;;;19.05;3.75;;;;;;;;;;5132467;27;20114;-68
2022/01/06 06:45:19;;;;;;;17.40;3.20;;;;;;;;;;5133679;27;20058;-68
2022/01/06 06:47:47;;;;;;;21.17;3.60;;;;;;;;;;5134764;27;20107;-68
2022/01/06 06:50:15;;;;;;;13.93;3.63;;;;;;;;;;5133421;27;20047;-68
2022/01/06 06:52:42;;;;;;;13.75;2.65;;;;;;;;;;5126954;27;20503;-68
2022/01/06 06:55:08;;;;;;;17.42;3.70;;;;;;;;;;5111828;27;20035;-68
2022/01/06 06:57:34;;;;;;;23.08;4.55;;;;;;;;;;5131285;27;20027;-68
2022/01/06 07:00:04;;;;;;;11.50;2.95;;;;;;;;;;5127477;27;20483;-68
2022/01/06 07:02:31;;;;;;;14.90;3.10;;;;;;;;;;5128392;27;20055;-68
2022/01/06 07:04:57;;;;;;;14.15;3.53;;;;;;;;;;5127458;27;20046;-68
2022/01/06 07:07:23;;;;;;;14.60;3.10;;;;;;;;;;5128899;27;20046;-68
2022/01/06 07:09:50;;;;;;;17.98;2.90;;;;;;;;;;5127931;27;20167;-67
2022/01/06 07:12:16;;;;;;;13.73;3.42;;;;;;;;;;5130096;27;20039;-68
2022/01/06 07:14:42;;;;;;;9.15;2.67;;;;;;;;;;5109857;27;20043;-69
2022/01/06 07:17:08;;;;;;;15.13;2.78;;;;;;;;;;5122346;27;20473;-68
2022/01/06 07:19:34;;;;;;;19.08;3.03;;;;;;;;;;5123486;27;20035;-68
2022/01/06 07:22:00;;;;;;;27.08;3.38;;;;;;;;;;5106957;27;20047;-69
2022/01/06 07:24:26;;;;;;;24.48;3.78;;;;;;;;;;5126674;27;20695;-69
2022/01/06 07:26:52;;;;;;;19.17;3.38;;;;;;;;;;5128015;27;20065;-68
2022/01/06 07:29:18;;;;;;;28.30;3.35;;;;;;;;;;5123371;27;20039;-68
2022/01/06 07:31:44;;;;;;;15.02;2.92;;;;;;;;;;5126970;27;20387;-68
2022/01/06 07:34:11;;;;;;;20.63;3.35;;;;;;;;;;5124452;27;20122;-68
2022/01/06 07:36:37;;;;;;;17.75;3.38;;;;;;;;;;5122289;27;20054;-69
2022/01/06 07:39:03;;;;;;;15.23;2.67;;;;;;;;;;5117097;27;20542;-69
2022/01/06 07:41:29;;;;;;;21.27;3.40;;;;;;;;;;5099212;27;20076;-69
2022/01/06 07:43:56;;;;;;;16.55;2.95;;;;;;;;;;5125472;27;20429;-70
2022/01/06 07:46:22;;;;;;;23.30;3.53;;;;;;;;;;5124565;27;20451;-69
2022/01/06 07:48:57;;;;;;;18.38;3.08;;;;;;;;;;5128649;27;20391;-70
2022/01/06 07:51:27;;;;;;;17.02;2.97;;;;;;;;;;5103062;27;20404;-68
2022/01/06 07:53:54;;;;;;;21.33;3.42;;;;;;;;;;5124931;27;20562;-69
2022/01/06 07:56:20;;;;;;;20.48;3.35;;;;;;;;;;5121074;27;20050;-69
2022/01/06 07:58:46;;;;;;;24.63;4.05;;;;;;;;;;5126688;27;20043;-69
2022/01/06 08:01:13;;;;;;;17.45;3.03;;;;;;;;;;5123619;27;20655;-69
2022/01/06 08:03:39;;;;;;;27.45;3.53;;;;;;;;;;5129546;27;20035;-69
2022/01/06 08:06:05;;;;;;;19.73;4.13;;;;;;;;;;5125996;27;20035;-69
2022/01/06 08:08:31;;;;;;;24.55;3.63;;;;;;;;;;5127405;27;20039;-69
2022/01/06 08:10:57;;;;;;;20.35;3.55;;;;;;;;;;5120599;27;20680;-69
2022/01/06 08:13:23;;;;;;;23.40;3.78;;;;;;;;;;5128137;27;20039;-69
2022/01/06 08:15:49;;;;;;;15.82;3.13;;;;;;;;;;5125975;27;20042;-70
2022/01/06 08:18:15;;;;;;;21.00;3.60;;;;;;;;;;5087930;27;20506;-69
2022/01/06 08:20:41;;;;;;;20.13;3.60;;;;;;;;;;5127222;27;20036;-67
2022/01/06 08:23:08;;;;;;;18.15;3.67;;;;;;;;;;5103044;27;20092;-68
2022/01/06 08:25:34;;;;;;;15.27;3.38;;;;;;;;;;5103972;27;20051;-68
2022/01/06 08:28:00;;;;;;;16.52;3.30;;;;;;;;;;5101499;27;20489;-68
2022/01/06 08:30:26;;;;;;;17.08;3.53;;;;;;;;;;5090143;27;20459;-68
2022/01/06 08:32:52;;;;;;;21.88;3.55;;;;;;;;;;5129521;27;20035;-68
2022/01/06 08:35:19;;;;;;;15.65;3.25;;;;;;;;;;5128983;27;20035;-68
2022/01/06 08:37:45;;;;;;;11.98;2.95;;;;;;;;;;5127775;27;20506;-67
2022/01/06 08:40:11;;;;;;;18.40;3.00;;;;;;;;;;5126342;27;20042;-68
2022/01/06 08:42:37;;;;;;;15.85;2.88;;;;;;;;;;5129159;27;20035;-69
2022/01/06 08:45:04;;;;;;;23.73;3.58;;;;;;;;;;5123316;27;20050;-68
2022/01/06 08:47:31;;;;;;;23.00;3.60;;;;;;;;;;5126098;27;20074;-68
2022/01/06 08:49:57;;;;;;;17.15;3.03;;;;;;;;;;5104243;27;20066;-68
2022/01/06 08:52:23;;;;;;;15.73;3.92;;;;;;;;;;5108878;27;20391;-68
2022/01/06 08:54:50;;;;;;;16.35;3.67;;;;;;;;;;5107583;27;20130;-68
2022/01/06 08:57:16;;;;;;;14.88;3.28;;;;;;;;;;5103799;27;20074;-68
2022/01/06 08:59:42;;;;;;;17.83;3.38;;;;;;;;;;5128579;27;20054;-68
2022/01/06 09:02:08;;;;;;;24.05;3.97;;;;;;;;;;5123306;27;20027;-68
2022/01/06 09:04:35;;;;;;;23.77;3.80;;;;;;;;;;5124944;27;20510;-69
2022/01/06 09:07:02;;;;;;;20.75;3.47;;;;;;;;;;5125679;27;20051;-68
2022/01/06 09:09:29;;;;;;;23.55;3.45;;;;;;;;;;5127294;27;20071;-69
2022/01/06 09:11:56;;;;;;;25.33;3.80;;;;;;;;;;5122277;27;20099;-69
2022/01/06 09:14:22;;;;;;;17.02;3.08;;;;;;;;;;5117911;27;20035;-69
2022/01/06 09:16:49;;;;;;;19.65;3.92;;;;;;;;;;5124526;27;20038;-68
2022/01/06 09:19:15;;;;;;;15.68;3.42;;;;;;;;;;5127472;27;20110;-68
2022/01/06 09:21:41;;;;;;;19.13;3.20;;;;;;;;;;5124426;27;20406;-68
2022/01/06 09:24:08;;;;;;;20.95;3.75;;;;;;;;;;5124782;27;20092;-68
2022/01/06 09:26:34;;;;;;;18.02;3.03;;;;;;;;;;5107366;27;20081;-68
2022/01/06 09:29:01;;;;;;;16.30;3.45;;;;;;;;;;5126232;27;20067;-69
2022/01/06 09:31:27;;;;;;;13.57;3.33;;;;;;;;;;5105289;28;20101;-68
2022/01/06 09:33:53;;;;;;;19.05;3.63;;;;;;;;;;5124786;27;20131;-68
2022/01/06 09:36:19;;;;;;;15.13;3.17;;;;;;;;;;5127618;27;20669;-69
2022/01/06 09:38:46;;;;;;;22.48;3.08;;;;;;;;;;5128594;28;20038;-69
2022/01/06 09:41:13;;;;;;;16.48;3.28;;;;;;;;;;5127182;28;20054;-70
2022/01/06 09:43:41;;;;;;;20.27;3.42;;;;;;;;;;5124879;28;20059;-68
2022/01/06 09:46:08;;;;;;;16.75;3.20;;;;;;;;;;5125452;28;20456;-70
2022/01/06 09:48:36;;;;;;;23.67;3.75;;;;;;;;;;5126884;28;20410;-69
2022/01/06 09:51:02;;;;;;;20.90;3.15;;;;;;;;;;5126568;28;20038;-69
2022/01/06 09:53:29;;;;;;;23.77;3.38;;;;;;;;;;5123738;28;20123;-68
2022/01/06 09:55:55;;;;;;;11.40;3.20;;;;;;;;;;5126786;28;20080;-68
2022/01/06 09:58:22;;;;;;;17.30;3.15;;;;;;;;;;5108375;28;20038;-68
2022/01/06 10:00:48;;;;;;;15.40;3.00;;;;;;;;;;5126830;28;20046;-69
2022/01/06 10:03:15;;;;;;;15.13;3.08;;;;;;;;;;5125518;28;20031;-69
2022/01/06 10:05:46;;;;;;;19.58;3.00;;;;;;;;;;5108890;28;20054;-69
2022/01/06 10:08:13;;;;;;;19.48;3.00;;;;;;;;;;5128052;28;20047;-68
2022/01/06 10:10:40;;;;;;;23.13;3.47;;;;;;;;;;5122952;28;20380;-68
2022/01/06 10:13:07;;;;;;;13.82;3.03;;;;;;;;;;5109187;28;20153;-68
2022/01/06 10:15:34;;;;;;;18.08;2.97;;;;;;;;;;5126770;28;20036;-68
2022/01/06 10:18:10;;;;;;;20.92;3.60;;;;;;;;;;5107863;28;20035;-68
2022/01/06 10:20:36;;;;;;;17.30;3.17;;;;;;;;;;5125371;28;20487;-68
2022/01/06 10:23:02;;;;;;;14.23;2.88;;;;;;;;;;5124834;28;20695;-68
2022/01/06 10:25:30;;;;;;;22.60;3.83;;;;;;;;;;5126219;28;20042;-68
2022/01/06 10:27:56;;;;;;;22.13;3.25;;;;;;;;;;5130058;27;20053;-69
2022/01/06 10:30:26;;;;;;;16.00;2.72;;;;;;;;;;5126154;27;20498;-70
2022/01/06 10:32:57;;;;;;;18.63;3.78;;;;;;;;;;5130390;27;20053;-70
2022/01/06 10:35:23;;;;;;;19.77;3.67;;;;;;;;;;5099630;27;20080;-69
2022/01/06 10:37:49;;;;;;;19.02;3.90;;;;;;;;;;5127399;27;20044;-70
2022/01/06 10:40:22;;;;;;;15.93;3.70;;;;;;;;;;5126468;27;20118;-71
2022/01/06 10:42:49;;;;;;;16.75;4.25;;;;;;;;;;5110598;27;20039;-70
2022/01/06 10:45:19;;;;;;;22.63;3.83;;;;;;;;;;5128936;27;20063;-70
2022/01/06 10:47:46;;;;;;;21.77;4.68;;;;;;;;;;5093669;27;20055;-70
2022/01/06 10:50:14;;;;;;;19.17;4.55;;;;;;;;;;5129149;27;20055;-70
2022/01/06 10:52:42;;;;;;;17.05;4.75;;;;;;;;;;5129273;27;20039;-70
2022/01/06 10:55:09;;;;;;;22.85;4.43;;;;;;;;;;5129669;27;21237;-70
2022/01/06 10:57:35;;;;;;;19.50;5.00;;;;;;;;;;5129292;27;20027;-70
2022/01/06 11:00:01;;;;;;;21.48;4.97;;;;;;;;;;5128215;27;20062;-70
2022/01/06 11:02:27;;;;;;;19.60;4.43;;;;;;;;;;5127234;27;20039;-70
2022/01/06 11:04:53;;;;;;;20.42;3.78;;;;;;;;;;5124587;27;20058;-68
2022/01/06 11:07:19;;;;;;;16.30;4.10;;;;;;;;;;5124282;27;20062;-68
2022/01/06 11:09:48;;;;;;;24.25;4.60;;;;;;;;;;5102841;27;20046;-68
2022/01/06 11:12:26;;;;;;;15.13;4.18;;;;;;;;;;5124021;27;20055;-68
2022/01/06 11:14:53;;;;;;;21.08;4.40;;;;;;;;;;5121218;27;20055;-68
2022/01/06 11:17:21;;;;;;;16.83;3.92;;;;;;;;;;5125338;27;20100;-68
2022/01/06 11:19:51;;;;;;;21.10;4.32;;;;;;;;;;5107926;27;20482;-68
2022/01/06 11:22:27;;;;;;;17.55;4.47;;;;;;;;;;5104988;27;20037;-68
2022/01/06 11:24:59;;;;;;;14.85;3.25;;;;;;;;;;5106530;27;20368;-67
2022/01/06 11:27:33;;;;;;;19.00;3.65;;;;;;;;;;5120855;27;20110;-68
2022/01/06 11:30:11;;;;;;;18.35;3.20;;;;;;;;;;5104635;27;20039;-68
2022/01/06 11:32:37;;;;;;;17.27;3.25;;;;;;;;;;5128842;27;20038;-68
2022/01/06 11:35:11;;;;;;;16.35;3.33;;;;;;;;;;5123980;27;20077;-67
2022/01/06 11:37:47;;;;;;;13.70;3.05;;;;;;;;;;5122722;27;20045;-68
2022/01/06 11:40:15;;;;;;;14.32;3.13;;;;;;;;;;5123756;27;20039;-67
2022/01/06 11:42:41;;;;;;;13.23;3.58;;;;;;;;;;5128646;27;20031;-68
2022/01/06 11:45:18;;;;;;;24.40;3.70;;;;;;;;;;5120386;27;20050;-68
2022/01/06 11:47:44;;;;;;;17.75;3.53;;;;;;;;;;5124089;27;20051;-69
2022/01/06 11:50:13;;;;;;;14.10;3.58;;;;;;;;;;5124308;27;20131;-68
2022/01/06 11:52:52;;;;;;;16.95;3.13;;;;;;;;;;5105592;27;20043;-68
2022/01/06 11:55:19;;;;;;;15.77;3.13;;;;;;;;;;5124926;27;20031;-68
2022/01/06 11:57:45;;;;;;;18.30;3.45;;;;;;;;;;5126551;27;20364;-67
2022/01/06 12:00:17;;;;;;;13.02;3.22;;;;;;;;;;5124448;27;20054;-67
2022/01/06 12:02:45;;;;;;;18.30;3.58;;;;;;;;;;5122779;27;20058;-67
2022/01/06 12:05:11;;;;;;;17.60;3.47;;;;;;;;;;5122724;27;20047;-67
2022/01/06 12:07:48;;;;;;;11.48;3.10;;;;;;;;;;5106661;27;20043;-68
2022/01/06 12:10:14;;;;;;;15.90;3.15;;;;;;;;;;5120642;27;20475;-68
2022/01/06 12:12:40;;;;;;;16.65;3.30;;;;;;;;;;5123672;27;20035;-69
2022/01/06 12:15:07;;;;;;;17.70;3.15;;;;;;;;;;5105845;27;20051;-69
2022/01/06 12:17:33;;;;;;;18.05;3.78;;;;;;;;;;5127689;27;20039;-69
2022/01/06 12:20:00;;;;;;;14.35;3.70;;;;;;;;;;5125639;27;20566;-68
2022/01/06 12:22:27;;;;;;;22.65;3.80;;;;;;;;;;5106733;27;20031;-67
2022/01/06 12:25:00;;;;;;;24.38;4.75;;;;;;;;;;5127754;27;20048;-68
2022/01/06 12:27:26;;;;;;;14.45;3.15;;;;;;;;;;5106392;27;20042;-68
2022/01/06 12:29:54;;;;;;;16.75;3.17;;;;;;;;;;5125126;27;20050;-67
2022/01/06 12:32:20;;;;;;;17.60;3.80;;;;;;;;;;5122618;27;20055;-67
2022/01/06 12:34:56;;;;;;;16.80;3.88;;;;;;;;;;5104469;27;20046;-68
2022/01/06 12:37:22;;;;;;;;;;;;;;;;;;5126956;27;20122;-68
2022/01/06 12:39:48;;;;;;;17.23;3.67;;;;;;;;;;5091740;27;20010;-68
2022/01/06 12:42:14;;;;;;;21.40;3.67;;;;;;;;;;5108013;27;20042;-68
2022/01/06 12:44:40;;;;;;;18.35;3.60;;;;;;;;;;5122612;27;20165;-69
2022/01/06 12:47:07;;;;;;;18.15;3.88;;;;;;;;;;5125266;27;20085;-68
2022/01/06 12:49:34;;;;;;;20.55;4.10;;;;;;;;;;5124698;27;20039;-68
2022/01/06 12:52:01;;;;;;;14.88;3.03;;;;;;;;;;5125284;27;20048;-68
2022/01/06 12:54:30;;;;;;;19.48;3.55;;;;;;;;;;5118223;27;20611;-69
2022/01/06 12:57:01;;;;;;;14.30;3.83;;;;;;;;;;5123165;27;20048;-68
2022/01/06 12:59:37;;;;;;;16.00;3.67;;;;;;;;;;5101176;27;20463;-66
2022/01/06 13:02:05;;;;;;;17.20;3.17;;;;;;;;;;5104512;27;20043;-67
2022/01/06 13:04:35;;;;;;;18.77;3.50;;;;;;;;;;5123857;27;20061;-68
2022/01/06 13:07:03;;;;;;;17.27;3.13;;;;;;;;;;5126908;27;20043;-68
